GAP2938 RPLL-RPME
Flight info
| Callsign | GAP2938 |
|---|---|
| Flight time | 1h 16m |
| Altitude | 37000 |
| Route | IPATA4V IPATA B462 TAC W9 BANWA |
| Aircraft | A320/M-SDE3FGHIRWY/LB1 |
Departure
| Time | 2026-04-24 09:35 |
|---|---|
| Airport | Ninoy Aquino International Airport (RPLL) |
Arrival
| Time | 2026-04-24 10:51 |
|---|---|
| Airport | Bancasi Airport (RPME) |
| Time | Latitude | Longitude | Altitude | Speed | Heading |
|---|---|---|---|---|---|
| 2026-04-24 08:58 | 14.51053 | 121.01407 | 84 ft | 0 kts | 231° |
| 2026-04-24 09:18 | 14.51056 | 121.01410 | 84 ft | 2 kts | 231° |
| 2026-04-24 09:19 | 14.51065 | 121.01422 | 84 ft | 2 kts | 231° |
| 2026-04-24 09:19 | 14.51075 | 121.01435 | 84 ft | 2 kts | 232° |
| 2026-04-24 09:19 | 14.51081 | 121.01449 | 84 ft | 2 kts | 262° |
| 2026-04-24 09:19 | 14.51081 | 121.01464 | 84 ft | 2 kts | 285° |
| 2026-04-24 09:20 | 14.51075 | 121.01478 | 84 ft | 1 kts | 308° |
| 2026-04-24 09:20 | 14.51074 | 121.01479 | 84 ft | 2 kts | 310° |
| 2026-04-24 09:20 | 14.51091 | 121.01460 | 84 ft | 7 kts | 314° |
| 2026-04-24 09:20 | 14.51127 | 121.01423 | 84 ft | 5 kts | 315° |
| 2026-04-24 09:21 | 14.51142 | 121.01408 | 84 ft | 0 kts | 315° |
| 2026-04-24 09:21 | 14.51142 | 121.01407 | 84 ft | 0 kts | 315° |
| 2026-04-24 09:26 | 14.51145 | 121.01405 | 84 ft | 1 kts | 315° |
| 2026-04-24 09:26 | 14.51156 | 121.01393 | 84 ft | 3 kts | 315° |
| 2026-04-24 09:27 | 14.51181 | 121.01369 | 84 ft | 6 kts | 327° |
| 2026-04-24 09:27 | 14.51226 | 121.01376 | 84 ft | 7 kts | 40° |
| 2026-04-24 09:27 | 14.51266 | 121.01414 | 84 ft | 8 kts | 45° |
| 2026-04-24 09:27 | 14.51307 | 121.01462 | 84 ft | 9 kts | 50° |
| 2026-04-24 09:28 | 14.51350 | 121.01516 | 84 ft | 10 kts | 45° |
| 2026-04-24 09:28 | 14.51412 | 121.01530 | 84 ft | 10 kts | 324° |
| 2026-04-24 09:28 | 14.51467 | 121.01474 | 84 ft | 11 kts | 315° |
| 2026-04-24 09:28 | 14.51525 | 121.01414 | 84 ft | 12 kts | 315° |
| 2026-04-24 09:29 | 14.51586 | 121.01351 | 84 ft | 12 kts | 315° |
| 2026-04-24 09:29 | 14.51650 | 121.01285 | 84 ft | 13 kts | 314° |
| 2026-04-24 09:29 | 14.51715 | 121.01218 | 84 ft | 13 kts | 315° |
| 2026-04-24 09:29 | 14.51783 | 121.01148 | 84 ft | 13 kts | 315° |
| 2026-04-24 09:30 | 14.51852 | 121.01077 | 84 ft | 14 kts | 315° |
| 2026-04-24 09:30 | 14.51947 | 121.00977 | 84 ft | 14 kts | 315° |
| 2026-04-24 09:30 | 14.51995 | 121.00927 | 84 ft | 14 kts | 315° |
| 2026-04-24 09:30 | 14.52069 | 121.00851 | 84 ft | 15 kts | 314° |
| 2026-04-24 09:31 | 14.52138 | 121.00780 | 84 ft | 10 kts | 315° |
| 2026-04-24 09:31 | 14.52197 | 121.00766 | 84 ft | 9 kts | 24° |
| 2026-04-24 09:31 | 14.52261 | 121.00761 | 84 ft | 10 kts | 317° |
| 2026-04-24 09:31 | 14.52312 | 121.00705 | 84 ft | 11 kts | 315° |
| 2026-04-24 09:32 | 14.52369 | 121.00646 | 84 ft | 11 kts | 315° |
| 2026-04-24 09:32 | 14.52428 | 121.00585 | 84 ft | 12 kts | 315° |
| 2026-04-24 09:32 | 14.52484 | 121.00527 | 84 ft | 8 kts | 310° |
| 2026-04-24 09:32 | 14.52476 | 121.00474 | 84 ft | 5 kts | 224° |
| 2026-04-24 09:33 | 14.52446 | 121.00444 | 84 ft | 6 kts | 225° |
| 2026-04-24 09:33 | 14.52414 | 121.00410 | 84 ft | 7 kts | 225° |
| 2026-04-24 09:33 | 14.52380 | 121.00393 | 84 ft | 5 kts | 162° |
| 2026-04-24 09:33 | 14.52357 | 121.00411 | 84 ft | 0 kts | 135° |
| 2026-04-24 09:34 | 14.52357 | 121.00412 | 84 ft | 1 kts | 135° |
| 2026-04-24 09:34 | 14.52252 | 121.00520 | 84 ft | 59 kts | 135° |
| 2026-04-24 09:35 | 14.51773 | 121.01013 | 84 ft | 133 kts | 134° |
| 2026-04-24 09:35 | 14.51026 | 121.01785 | 501 ft | 157 kts | 133° |
| 2026-04-24 09:35 | 14.50269 | 121.02565 | 1269 ft | 159 kts | 133° |
| 2026-04-24 09:35 | 14.49497 | 121.03364 | 2066 ft | 161 kts | 132° |
| 2026-04-24 09:36 | 14.48724 | 121.04166 | 2734 ft | 157 kts | 131° |
| 2026-04-24 09:36 | 14.47955 | 121.04966 | 3213 ft | 159 kts | 131° |
| 2026-04-24 09:36 | 14.47144 | 121.05813 | 3524 ft | 174 kts | 131° |
| 2026-04-24 09:36 | 14.46254 | 121.06741 | 3847 ft | 190 kts | 131° |
| 2026-04-24 09:37 | 14.45285 | 121.07752 | 4188 ft | 207 kts | 131° |
| 2026-04-24 09:37 | 14.44241 | 121.08836 | 4525 ft | 224 kts | 131° |
| 2026-04-24 09:37 | 14.43285 | 121.10168 | 4832 ft | 239 kts | 112° |
| 2026-04-24 09:37 | 14.42796 | 121.11851 | 5161 ft | 256 kts | 99° |
| 2026-04-24 09:38 | 14.42465 | 121.13695 | 5666 ft | 269 kts | 97° |
| 2026-04-24 09:38 | 14.42138 | 121.15620 | 6337 ft | 276 kts | 97° |
| 2026-04-24 09:38 | 14.41794 | 121.17586 | 7007 ft | 283 kts | 97° |
| 2026-04-24 09:38 | 14.41435 | 121.19611 | 7712 ft | 289 kts | 97° |
| 2026-04-24 09:39 | 14.41058 | 121.21659 | 8364 ft | 296 kts | 101° |
| 2026-04-24 09:39 | 14.40368 | 121.23646 | 9042 ft | 304 kts | 115° |
| 2026-04-24 09:39 | 14.39199 | 121.25492 | 9868 ft | 305 kts | 126° |
| 2026-04-24 09:39 | 14.37920 | 121.27155 | 10925 ft | 294 kts | 128° |
| 2026-04-24 09:40 | 14.36666 | 121.28752 | 11917 ft | 285 kts | 129° |
| 2026-04-24 09:40 | 14.35433 | 121.30321 | 12675 ft | 284 kts | 130° |
| 2026-04-24 09:40 | 14.34197 | 121.31900 | 13349 ft | 287 kts | 130° |
| 2026-04-24 09:40 | 14.32947 | 121.33508 | 14030 ft | 289 kts | 130° |
| 2026-04-24 09:41 | 14.31713 | 121.35101 | 14700 ft | 291 kts | 130° |
| 2026-04-24 09:41 | 14.30444 | 121.36743 | 15381 ft | 292 kts | 130° |
| 2026-04-24 09:41 | 14.29164 | 121.38342 | 16041 ft | 293 kts | 135° |
| 2026-04-24 09:41 | 14.27728 | 121.39831 | 16706 ft | 294 kts | 139° |
| 2026-04-24 09:42 | 14.26240 | 121.41286 | 17368 ft | 296 kts | 139° |
| 2026-04-24 09:42 | 14.24761 | 121.42736 | 18015 ft | 297 kts | 139° |
| 2026-04-24 09:42 | 14.23281 | 121.44203 | 18655 ft | 299 kts | 138° |
| 2026-04-24 09:42 | 14.21777 | 121.45708 | 19297 ft | 301 kts | 138° |
| 2026-04-24 09:43 | 14.20297 | 121.47198 | 19921 ft | 302 kts | 138° |
| 2026-04-24 09:43 | 14.18785 | 121.48725 | 20543 ft | 304 kts | 138° |
| 2026-04-24 09:43 | 14.17280 | 121.50248 | 21141 ft | 306 kts | 138° |
| 2026-04-24 09:43 | 14.15774 | 121.51773 | 21720 ft | 309 kts | 137° |
| 2026-04-24 09:44 | 14.14246 | 121.53320 | 22295 ft | 311 kts | 137° |
| 2026-04-24 09:44 | 14.12705 | 121.54883 | 22860 ft | 314 kts | 137° |
| 2026-04-24 09:44 | 14.11130 | 121.56478 | 23418 ft | 316 kts | 137° |
| 2026-04-24 09:44 | 14.09565 | 121.58064 | 23955 ft | 319 kts | 137° |
| 2026-04-24 09:45 | 14.07993 | 121.59657 | 24476 ft | 321 kts | 137° |
| 2026-04-24 09:45 | 14.06407 | 121.61263 | 24984 ft | 324 kts | 137° |
| 2026-04-24 09:45 | 14.04786 | 121.62905 | 25487 ft | 326 kts | 137° |
| 2026-04-24 09:45 | 14.03184 | 121.64529 | 25966 ft | 329 kts | 137° |
| 2026-04-24 09:46 | 14.01556 | 121.66182 | 26436 ft | 331 kts | 137° |
| 2026-04-24 09:46 | 13.99908 | 121.67865 | 26894 ft | 334 kts | 137° |
| 2026-04-24 09:46 | 13.98268 | 121.69535 | 27335 ft | 336 kts | 137° |
| 2026-04-24 09:46 | 13.96587 | 121.71242 | 27774 ft | 339 kts | 137° |
| 2026-04-24 09:47 | 13.94918 | 121.72933 | 28193 ft | 341 kts | 137° |
| 2026-04-24 09:47 | 13.93230 | 121.74641 | 28604 ft | 344 kts | 137° |
| 2026-04-24 09:47 | 13.91522 | 121.76369 | 29006 ft | 346 kts | 137° |
| 2026-04-24 09:47 | 13.89804 | 121.78106 | 29399 ft | 349 kts | 136° |
| 2026-04-24 09:48 | 13.88058 | 121.79861 | 29789 ft | 351 kts | 137° |
| 2026-04-24 09:48 | 13.86349 | 121.81660 | 30165 ft | 354 kts | 133° |
| 2026-04-24 09:48 | 13.84749 | 121.83554 | 30531 ft | 357 kts | 131° |
| 2026-04-24 09:48 | 13.83144 | 121.85513 | 30891 ft | 359 kts | 131° |
| 2026-04-24 09:49 | 13.81530 | 121.87489 | 31242 ft | 362 kts | 131° |
| 2026-04-24 09:49 | 13.79920 | 121.89462 | 31582 ft | 364 kts | 130° |
| 2026-04-24 09:49 | 13.78291 | 121.91460 | 31908 ft | 366 kts | 130° |
| 2026-04-24 09:49 | 13.76647 | 121.93474 | 32229 ft | 368 kts | 130° |
| 2026-04-24 09:50 | 13.75013 | 121.95476 | 32538 ft | 370 kts | 130° |
| 2026-04-24 09:50 | 13.73345 | 121.97518 | 32836 ft | 373 kts | 130° |
| 2026-04-24 09:50 | 13.71692 | 121.99542 | 33118 ft | 375 kts | 130° |
| 2026-04-24 09:50 | 13.70005 | 122.01607 | 33400 ft | 377 kts | 130° |
| 2026-04-24 09:51 | 13.68328 | 122.03661 | 33668 ft | 379 kts | 130° |
| 2026-04-24 09:51 | 13.66622 | 122.05748 | 33934 ft | 381 kts | 130° |
| 2026-04-24 09:51 | 13.64932 | 122.07815 | 34188 ft | 383 kts | 130° |
| 2026-04-24 09:51 | 13.63213 | 122.09917 | 34437 ft | 385 kts | 130° |
| 2026-04-24 09:52 | 13.61492 | 122.12022 | 34677 ft | 387 kts | 130° |
| 2026-04-24 09:52 | 13.59772 | 122.14123 | 34903 ft | 388 kts | 130° |
| 2026-04-24 09:52 | 13.58040 | 122.16240 | 35123 ft | 390 kts | 130° |
| 2026-04-24 09:52 | 13.56295 | 122.18371 | 35339 ft | 392 kts | 130° |
| 2026-04-24 09:53 | 13.54534 | 122.20521 | 35550 ft | 393 kts | 130° |
| 2026-04-24 09:53 | 13.52764 | 122.22683 | 35756 ft | 395 kts | 130° |
| 2026-04-24 09:53 | 13.51008 | 122.24826 | 35950 ft | 396 kts | 130° |
| 2026-04-24 09:53 | 13.49244 | 122.26979 | 36135 ft | 398 kts | 130° |
| 2026-04-24 09:54 | 13.47447 | 122.29171 | 36311 ft | 399 kts | 130° |
| 2026-04-24 09:54 | 13.45668 | 122.31341 | 36484 ft | 401 kts | 130° |
| 2026-04-24 09:54 | 13.43884 | 122.33516 | 36645 ft | 402 kts | 130° |
| 2026-04-24 09:54 | 13.42067 | 122.35731 | 36799 ft | 404 kts | 130° |
| 2026-04-24 09:55 | 13.38434 | 122.40159 | 36851 ft | 414 kts | 130° |
| 2026-04-24 09:55 | 13.34673 | 122.44739 | 36862 ft | 424 kts | 130° |
| 2026-04-24 09:56 | 13.30872 | 122.49366 | 36868 ft | 427 kts | 130° |
| 2026-04-24 09:56 | 13.27048 | 122.54019 | 36874 ft | 427 kts | 130° |
| 2026-04-24 09:57 | 13.23226 | 122.58667 | 36878 ft | 427 kts | 130° |
| 2026-04-24 09:57 | 13.19426 | 122.63287 | 36880 ft | 427 kts | 130° |
| 2026-04-24 09:58 | 13.15585 | 122.67967 | 36880 ft | 427 kts | 130° |
| 2026-04-24 09:58 | 13.11802 | 122.72585 | 36880 ft | 427 kts | 130° |
| 2026-04-24 09:59 | 13.07981 | 122.77235 | 36879 ft | 428 kts | 131° |
| 2026-04-24 09:59 | 13.04141 | 122.81898 | 36879 ft | 430 kts | 131° |
| 2026-04-24 10:00 | 13.00289 | 122.86568 | 36879 ft | 432 kts | 131° |
| 2026-04-24 10:00 | 12.96410 | 122.91267 | 36879 ft | 433 kts | 131° |
| 2026-04-24 10:01 | 12.92531 | 122.95963 | 36880 ft | 434 kts | 131° |
| 2026-04-24 10:01 | 12.88618 | 123.00693 | 36880 ft | 434 kts | 131° |
| 2026-04-24 10:02 | 12.84706 | 123.05393 | 36880 ft | 434 kts | 131° |
| 2026-04-24 10:02 | 12.80827 | 123.10066 | 36880 ft | 434 kts | 130° |
| 2026-04-24 10:03 | 12.76929 | 123.14773 | 36880 ft | 434 kts | 130° |
| 2026-04-24 10:03 | 12.73032 | 123.19480 | 36880 ft | 434 kts | 130° |
| 2026-04-24 10:04 | 12.69123 | 123.24200 | 36880 ft | 434 kts | 130° |
| 2026-04-24 10:04 | 12.65255 | 123.28867 | 36880 ft | 434 kts | 130° |
| 2026-04-24 10:05 | 12.61343 | 123.33588 | 36880 ft | 434 kts | 130° |
| 2026-04-24 10:05 | 12.57459 | 123.38271 | 36880 ft | 434 kts | 130° |
| 2026-04-24 10:06 | 12.51621 | 123.45309 | 36880 ft | 434 kts | 130° |
| 2026-04-24 10:07 | 12.47707 | 123.50024 | 36880 ft | 434 kts | 130° |
| 2026-04-24 10:07 | 12.43815 | 123.54713 | 36880 ft | 434 kts | 130° |
| 2026-04-24 10:08 | 12.39910 | 123.59416 | 36880 ft | 434 kts | 130° |
| 2026-04-24 10:08 | 12.36028 | 123.64095 | 36880 ft | 434 kts | 130° |
| 2026-04-24 10:09 | 12.32184 | 123.68845 | 36880 ft | 434 kts | 130° |
| 2026-04-24 10:09 | 12.28350 | 123.73608 | 36880 ft | 434 kts | 130° |
| 2026-04-24 10:10 | 12.24532 | 123.78330 | 36880 ft | 434 kts | 130° |
| 2026-04-24 10:10 | 12.20679 | 123.83086 | 36880 ft | 434 kts | 130° |
| 2026-04-24 10:11 | 12.16853 | 123.87806 | 36880 ft | 434 kts | 130° |
| 2026-04-24 10:11 | 12.12999 | 123.92557 | 36880 ft | 434 kts | 130° |
| 2026-04-24 10:12 | 12.09179 | 123.97263 | 36880 ft | 434 kts | 130° |
| 2026-04-24 10:12 | 12.05311 | 124.02026 | 36880 ft | 434 kts | 130° |
| 2026-04-24 10:13 | 12.01463 | 124.06763 | 36880 ft | 434 kts | 130° |
| 2026-04-24 10:13 | 11.97637 | 124.11470 | 36880 ft | 434 kts | 130° |
| 2026-04-24 10:14 | 11.93792 | 124.16200 | 36880 ft | 434 kts | 130° |
| 2026-04-24 10:14 | 11.89931 | 124.20945 | 36880 ft | 434 kts | 130° |
| 2026-04-24 10:15 | 11.86063 | 124.25669 | 36880 ft | 434 kts | 130° |
| 2026-04-24 10:15 | 11.82212 | 124.30371 | 36880 ft | 434 kts | 130° |
| 2026-04-24 10:16 | 11.78353 | 124.35093 | 36880 ft | 434 kts | 130° |
| 2026-04-24 10:16 | 11.74500 | 124.39818 | 36880 ft | 434 kts | 130° |
| 2026-04-24 10:17 | 11.70639 | 124.44553 | 36880 ft | 434 kts | 130° |
| 2026-04-24 10:17 | 11.66809 | 124.49250 | 36880 ft | 435 kts | 130° |
| 2026-04-24 10:18 | 11.62953 | 124.53976 | 36880 ft | 434 kts | 130° |
| 2026-04-24 10:18 | 11.59102 | 124.58696 | 36880 ft | 434 kts | 130° |
| 2026-04-24 10:19 | 11.55232 | 124.63439 | 36880 ft | 434 kts | 130° |
| 2026-04-24 10:19 | 11.51394 | 124.68152 | 36880 ft | 434 kts | 130° |
| 2026-04-24 10:20 | 11.47536 | 124.72882 | 36880 ft | 434 kts | 130° |
| 2026-04-24 10:20 | 11.43688 | 124.77583 | 36880 ft | 434 kts | 130° |
| 2026-04-24 10:21 | 11.39823 | 124.82303 | 36880 ft | 434 kts | 130° |
| 2026-04-24 10:21 | 11.35955 | 124.87026 | 36880 ft | 434 kts | 130° |
| 2026-04-24 10:22 | 11.32097 | 124.91734 | 36880 ft | 434 kts | 130° |
| 2026-04-24 10:22 | 11.28218 | 124.96393 | 36878 ft | 433 kts | 134° |
| 2026-04-24 10:23 | 11.23686 | 125.00341 | 36880 ft | 431 kts | 147° |
| 2026-04-24 10:23 | 11.18426 | 125.03152 | 36881 ft | 429 kts | 160° |
| 2026-04-24 10:24 | 11.12700 | 125.04758 | 36882 ft | 428 kts | 169° |
| 2026-04-24 10:24 | 11.06922 | 125.05914 | 36880 ft | 427 kts | 169° |
| 2026-04-24 10:25 | 11.01084 | 125.07085 | 36880 ft | 427 kts | 169° |
| 2026-04-24 10:25 | 10.95283 | 125.08262 | 36880 ft | 427 kts | 169° |
| 2026-04-24 10:26 | 10.89497 | 125.09441 | 36880 ft | 427 kts | 169° |
| 2026-04-24 10:26 | 10.83701 | 125.10621 | 36879 ft | 426 kts | 168° |
| 2026-04-24 10:27 | 10.77966 | 125.12132 | 36880 ft | 427 kts | 164° |
| 2026-04-24 10:27 | 10.75113 | 125.12961 | 36377 ft | 432 kts | 164° |
| 2026-04-24 10:27 | 10.72203 | 125.13810 | 35619 ft | 435 kts | 164° |
| 2026-04-24 10:27 | 10.69329 | 125.14649 | 34929 ft | 436 kts | 164° |
| 2026-04-24 10:28 | 10.66411 | 125.15501 | 34251 ft | 436 kts | 164° |
| 2026-04-24 10:28 | 10.63540 | 125.16339 | 33585 ft | 437 kts | 164° |
| 2026-04-24 10:28 | 10.60612 | 125.17194 | 32895 ft | 437 kts | 164° |
| 2026-04-24 10:28 | 10.57732 | 125.18034 | 32223 ft | 437 kts | 164° |
| 2026-04-24 10:29 | 10.54806 | 125.18887 | 31524 ft | 438 kts | 164° |
| 2026-04-24 10:29 | 10.51908 | 125.19732 | 30824 ft | 438 kts | 165° |
| 2026-04-24 10:29 | 10.48992 | 125.20582 | 30104 ft | 439 kts | 165° |
| 2026-04-24 10:29 | 10.46040 | 125.21442 | 29450 ft | 438 kts | 165° |
| 2026-04-24 10:30 | 10.43164 | 125.22280 | 28997 ft | 432 kts | 165° |
| 2026-04-24 10:30 | 10.40297 | 125.23116 | 28535 ft | 427 kts | 165° |
| 2026-04-24 10:30 | 10.37498 | 125.23930 | 28073 ft | 423 kts | 165° |
| 2026-04-24 10:30 | 10.34677 | 125.24752 | 27605 ft | 418 kts | 165° |
| 2026-04-24 10:31 | 10.31892 | 125.25562 | 27135 ft | 415 kts | 165° |
| 2026-04-24 10:31 | 10.29162 | 125.26357 | 26672 ft | 411 kts | 165° |
| 2026-04-24 10:31 | 10.26424 | 125.27154 | 26205 ft | 408 kts | 165° |
| 2026-04-24 10:31 | 10.23738 | 125.27936 | 25744 ft | 404 kts | 165° |
| 2026-04-24 10:32 | 10.21069 | 125.28712 | 25282 ft | 402 kts | 165° |
| 2026-04-24 10:32 | 10.18373 | 125.29496 | 24816 ft | 399 kts | 165° |
| 2026-04-24 10:32 | 10.15747 | 125.30260 | 24360 ft | 396 kts | 165° |
| 2026-04-24 10:32 | 10.13098 | 125.31030 | 23896 ft | 394 kts | 165° |
| 2026-04-24 10:33 | 10.10500 | 125.31785 | 23438 ft | 391 kts | 166° |
| 2026-04-24 10:33 | 10.07888 | 125.32544 | 22978 ft | 389 kts | 166° |
| 2026-04-24 10:33 | 10.05322 | 125.33289 | 22518 ft | 387 kts | 166° |
| 2026-04-24 10:33 | 10.02733 | 125.34042 | 22053 ft | 385 kts | 166° |
| 2026-04-24 10:34 | 10.00171 | 125.34785 | 21590 ft | 383 kts | 166° |
| 2026-04-24 10:34 | 9.97646 | 125.35519 | 21132 ft | 382 kts | 166° |
| 2026-04-24 10:34 | 9.95092 | 125.36260 | 20668 ft | 380 kts | 166° |
| 2026-04-24 10:34 | 9.92588 | 125.36987 | 20211 ft | 378 kts | 166° |
| 2026-04-24 10:35 | 9.90079 | 125.37715 | 19750 ft | 376 kts | 166° |
| 2026-04-24 10:35 | 9.87566 | 125.38442 | 19286 ft | 375 kts | 166° |
| 2026-04-24 10:35 | 9.85081 | 125.39159 | 18827 ft | 373 kts | 166° |
| 2026-04-24 10:35 | 9.82611 | 125.39872 | 18370 ft | 371 kts | 166° |
| 2026-04-24 10:36 | 9.80152 | 125.40584 | 17914 ft | 369 kts | 166° |
| 2026-04-24 10:36 | 9.77662 | 125.41304 | 17448 ft | 368 kts | 166° |
| 2026-04-24 10:36 | 9.75224 | 125.42011 | 16995 ft | 366 kts | 166° |
| 2026-04-24 10:36 | 9.72818 | 125.42708 | 16545 ft | 364 kts | 166° |
| 2026-04-24 10:37 | 9.70381 | 125.43413 | 16089 ft | 363 kts | 166° |
| 2026-04-24 10:37 | 9.67975 | 125.44111 | 15638 ft | 361 kts | 166° |
| 2026-04-24 10:37 | 9.65573 | 125.44807 | 15187 ft | 359 kts | 166° |
| 2026-04-24 10:37 | 9.63190 | 125.45498 | 14739 ft | 358 kts | 166° |
| 2026-04-24 10:38 | 9.60786 | 125.46194 | 14287 ft | 356 kts | 166° |
| 2026-04-24 10:38 | 9.58444 | 125.46872 | 13847 ft | 355 kts | 166° |
| 2026-04-24 10:38 | 9.56058 | 125.47563 | 13399 ft | 353 kts | 166° |
| 2026-04-24 10:38 | 9.53713 | 125.48243 | 12959 ft | 352 kts | 166° |
| 2026-04-24 10:39 | 9.51373 | 125.48920 | 12519 ft | 350 kts | 166° |
| 2026-04-24 10:39 | 9.49057 | 125.49590 | 12085 ft | 349 kts | 166° |
| 2026-04-24 10:39 | 9.46731 | 125.50263 | 11644 ft | 347 kts | 166° |
| 2026-04-24 10:39 | 9.44438 | 125.50926 | 11203 ft | 346 kts | 166° |
| 2026-04-24 10:40 | 9.42124 | 125.51595 | 10766 ft | 345 kts | 165° |
| 2026-04-24 10:40 | 9.39845 | 125.52254 | 10340 ft | 343 kts | 165° |
| 2026-04-24 10:40 | 9.37568 | 125.52913 | 10201 ft | 331 kts | 165° |
| 2026-04-24 10:40 | 9.35431 | 125.53533 | 10123 ft | 317 kts | 165° |
| 2026-04-24 10:41 | 9.33357 | 125.54135 | 10052 ft | 303 kts | 165° |
| 2026-04-24 10:41 | 9.31358 | 125.54715 | 9803 ft | 299 kts | 165° |
| 2026-04-24 10:41 | 9.29372 | 125.55288 | 9462 ft | 297 kts | 165° |
| 2026-04-24 10:41 | 9.27397 | 125.55859 | 9132 ft | 295 kts | 165° |
| 2026-04-24 10:42 | 9.25412 | 125.56432 | 8804 ft | 293 kts | 165° |
| 2026-04-24 10:42 | 9.23468 | 125.56994 | 8484 ft | 291 kts | 165° |
| 2026-04-24 10:42 | 9.21533 | 125.57553 | 8167 ft | 289 kts | 164° |
| 2026-04-24 10:42 | 9.19620 | 125.58106 | 7853 ft | 287 kts | 164° |
| 2026-04-24 10:43 | 9.17702 | 125.58660 | 7540 ft | 285 kts | 164° |
| 2026-04-24 10:43 | 9.15817 | 125.59205 | 7233 ft | 283 kts | 163° |
| 2026-04-24 10:43 | 9.13949 | 125.59744 | 6928 ft | 281 kts | 163° |
| 2026-04-24 10:43 | 9.12080 | 125.60284 | 6625 ft | 278 kts | 163° |
| 2026-04-24 10:44 | 9.10230 | 125.60819 | 6325 ft | 274 kts | 162° |
| 2026-04-24 10:44 | 9.08440 | 125.61336 | 6031 ft | 263 kts | 162° |
| 2026-04-24 10:44 | 9.06749 | 125.61842 | 5786 ft | 245 kts | 165° |
| 2026-04-24 10:44 | 9.05181 | 125.62297 | 5555 ft | 227 kts | 166° |
| 2026-04-24 10:45 | 9.03714 | 125.62719 | 5323 ft | 216 kts | 166° |
| 2026-04-24 10:45 | 9.02276 | 125.63132 | 5150 ft | 207 kts | 166° |
| 2026-04-24 10:45 | 9.00927 | 125.63483 | 4945 ft | 197 kts | 174° |
| 2026-04-24 10:45 | 8.99609 | 125.63387 | 4639 ft | 191 kts | 193° |
| 2026-04-24 10:46 | 8.98330 | 125.63061 | 4373 ft | 185 kts | 195° |
| 2026-04-24 10:46 | 8.97115 | 125.62745 | 4135 ft | 179 kts | 194° |
| 2026-04-24 10:46 | 8.95924 | 125.62464 | 3902 ft | 172 kts | 193° |
| 2026-04-24 10:46 | 8.94781 | 125.62215 | 3675 ft | 166 kts | 192° |
| 2026-04-24 10:47 | 8.93668 | 125.61987 | 3451 ft | 159 kts | 192° |
| 2026-04-24 10:47 | 8.92589 | 125.61771 | 3207 ft | 154 kts | 192° |
| 2026-04-24 10:47 | 8.91561 | 125.61569 | 3011 ft | 150 kts | 191° |
| 2026-04-24 10:47 | 8.90541 | 125.61367 | 2889 ft | 150 kts | 195° |
| 2026-04-24 10:48 | 8.89676 | 125.60819 | 2749 ft | 147 kts | 233° |
| 2026-04-24 10:48 | 8.89391 | 125.59862 | 2730 ft | 147 kts | 270° |
| 2026-04-24 10:48 | 8.89688 | 125.58874 | 2730 ft | 146 kts | 292° |
| 2026-04-24 10:48 | 8.90140 | 125.57959 | 2696 ft | 145 kts | 295° |
| 2026-04-24 10:49 | 8.90628 | 125.57065 | 2554 ft | 145 kts | 295° |
| 2026-04-24 10:49 | 8.91080 | 125.56163 | 2321 ft | 145 kts | 293° |
| 2026-04-24 10:49 | 8.91533 | 125.55248 | 2017 ft | 144 kts | 294° |
| 2026-04-24 10:49 | 8.91989 | 125.54360 | 1684 ft | 144 kts | 294° |
| 2026-04-24 10:50 | 8.92445 | 125.53458 | 1299 ft | 143 kts | 294° |
| 2026-04-24 10:50 | 8.92874 | 125.52561 | 948 ft | 143 kts | 294° |
| 2026-04-24 10:50 | 8.93305 | 125.51671 | 660 ft | 142 kts | 293° |
| 2026-04-24 10:50 | 8.93748 | 125.50762 | 459 ft | 142 kts | 295° |
| 2026-04-24 10:51 | 8.94192 | 125.49880 | 336 ft | 142 kts | 294° |
| 2026-04-24 10:51 | 8.94619 | 125.48975 | 156 ft | 142 kts | 293° |
| 2026-04-24 10:51 | 8.95031 | 125.48120 | 44 ft | 118 kts | 294° |
| 2026-04-24 10:51 | 8.95266 | 125.47659 | 38 ft | 31 kts | 295° |
| 2026-04-24 10:52 | 8.95308 | 125.47541 | 37 ft | 16 kts | 281° |
| 2026-04-24 10:52 | 8.95342 | 125.47497 | 36 ft | 7 kts | 67° |
| 2026-04-24 10:52 | 8.95320 | 125.47549 | 37 ft | 8 kts | 118° |
| 2026-04-24 10:52 | 8.95291 | 125.47602 | 37 ft | 8 kts | 119° |
| 2026-04-24 10:53 | 8.95261 | 125.47656 | 38 ft | 9 kts | 117° |
| 2026-04-24 10:53 | 8.95233 | 125.47714 | 38 ft | 9 kts | 116° |
| 2026-04-24 10:53 | 8.95201 | 125.47778 | 39 ft | 10 kts | 116° |
| 2026-04-24 10:53 | 8.95168 | 125.47845 | 39 ft | 10 kts | 116° |
| 2026-04-24 10:54 | 8.95134 | 125.47915 | 40 ft | 11 kts | 116° |
| 2026-04-24 10:54 | 8.95100 | 125.47984 | 40 ft | 11 kts | 116° |
| 2026-04-24 10:54 | 8.95067 | 125.48051 | 42 ft | 9 kts | 116° |
| 2026-04-24 10:54 | 8.95031 | 125.48090 | 43 ft | 7 kts | 160° |
| 2026-04-24 10:55 | 8.94984 | 125.48103 | 44 ft | 6 kts | 162° |
| 2026-04-24 10:55 | 8.94944 | 125.48124 | 44 ft | 6 kts | 128° |
| 2026-04-24 10:55 | 8.94926 | 125.48161 | 45 ft | 5 kts | 116° |
| 2026-04-24 10:55 | 8.94911 | 125.48191 | 46 ft | 4 kts | 116° |
| 2026-04-24 10:56 | 8.94894 | 125.48199 | 47 ft | 3 kts | 195° |
| 2026-04-24 10:56 | 8.94882 | 125.48182 | 47 ft | 3 kts | 245° |
| 2026-04-24 10:56 | 8.94875 | 125.48169 | 46 ft | 1 kts | 235° |
| 2026-04-24 10:56 | 8.94869 | 125.48161 | 47 ft | 0 kts | 235° |
| 2026-04-24 10:57 | 8.94868 | 125.48159 | 47 ft | 0 kts | 235° |